Details From KONT - Ontario Intl
To KPSP - Palm Springs Intl
Flight Number -
Tags generated
Created
Modified
Stats Distance 56 nm / 104 km
Max Altitude 3,700 ft / 1,128 m
Waypoints 3
Social Downloads 0
Likes 0
Share VATSIM

Download

Looking for another format? Having issues loading an existing format? Contact us
Advertisement - Login to hide

Notes

Basic altitude profile: - Ascent Rate: 2200ft/min - Ascent Speed: 180kts - Cruise Altitude: 12000ft - Cruise Speed: 240kts - Descent Rate: 2000ft/min - Descent Speed: 200kts Options: - Use NATs: no - Use PACOTS: no - Use low airways: yes - Use high airways: no

Route

KONT BANDS KPSP

ID Type Via Altitude Latitude Longitude Leg Dist Tot Dist Heading (true) Name
O KONT APT - 0 ft / 0 m 34.05592˚ -117.60085˚ - 0 nm - Ontario Intl
BANDS FIX - 3,700 ft / 1,128 m 33.88961˚ -116.84948˚ 38 nm 38 nm 105° / 105° -
O KPSP APT - 0 ft / 0 m 33.82968˚ -116.50622˚ 17 nm 56 nm 102° / 102° Palm Springs Intl

Altitude Profile

Advertisement - Login to hide

KONT

Details ICAO KONT (ONT)
Name Ontario Intl
Region United States
Timezone America/Los_Angeles (UTC-8.0)
Stats Elevation 944 ft / 288 m (AMSL)
Location 34.055917° -117.600853°
Runways 2
Magnetic Variation 11.863° E

METAR

KONT 110653Z COR 32006KT 10SM BKN250 15/M08 A3019 RMK AO2 SLP212 T01501078

Decode

TAF

KONT 110525Z 1106/1212 05010KT P6SM BKN200 FM111200 VRB06KT P6SM SCT250

Decode

Departure Runways

ID Width Length Bearing (true) Bearing (mag) Surface Threshold Offset Overrun Length
08L 151 ft / 46 m 12,279 ft / 3,743 m 89.96° 78.10° Concrete 997 ft / 304 m 400 ft / 122 m
26L 151 ft / 46 m 10,269 ft / 3,130 m 269.97° 258.11° Concrete 0 ft / 0 m 400 ft / 122 m
26R 151 ft / 46 m 12,279 ft / 3,743 m 269.99° 258.13° Concrete 0 ft / 0 m 400 ft / 122 m
8R 151 ft / 46 m 10,269 ft / 3,130 m 89.95° 78.09° Concrete 0 ft / 0 m 400 ft / 122 m

KPSP

Details ICAO KPSP (PSP)
Name Palm Springs Intl
Region United States
Timezone America/Los_Angeles (UTC-8.0)
Stats Elevation 477 ft / 145 m (AMSL)
Location 33.829677° -116.506218°
Runways 2
Magnetic Variation 11.581° E

METAR

KPSP 110653Z 30005KT 10SM CLR 18/M10 A3023 RMK AO2 SLP235 T01781100

Decode

TAF

KPSP 110525Z 1106/1206 VRB06KT P6SM BKN200

Decode

Destination Runways

ID Width Length Bearing (true) Bearing (mag) Surface Threshold Offset Overrun Length
13L 75 ft / 23 m 4,958 ft / 1,511 m 143.52° 131.94° Asphalt 0 ft / 0 m 151 ft / 46 m
13R 151 ft / 46 m 10,012 ft / 3,052 m 143.52° 131.94° Asphalt 2,999 ft / 914 m 200 ft / 61 m
31L 151 ft / 46 m 10,012 ft / 3,052 m 323.53° 311.95° Asphalt 1,499 ft / 457 m 200 ft / 61 m
31R 75 ft / 23 m 4,958 ft / 1,511 m 323.53° 311.95° Asphalt 0 ft / 0 m 151 ft / 46 m

Popular Alternatives